sensor_id;sensor_type;location;lat;lon;timestamp;temperature;humidity
30174;DHT22;16985;50.814;8.530;2023-04-15T00:01:29;4.50;99.90
30174;DHT22;16985;50.814;8.530;2023-04-15T00:03:58;4.60;99.90
30174;DHT22;16985;50.814;8.530;2023-04-15T00:06:24;4.50;99.90
30174;DHT22;16985;50.814;8.530;2023-04-15T00:08:50;4.60;99.90
30174;DHT22;16985;50.814;8.530;2023-04-15T00:11:16;4.50;99.90
30174;DHT22;16985;50.814;8.530;2023-04-15T00:13:43;4.50;99.90
30174;DHT22;16985;50.814;8.530;2023-04-15T00:16:09;4.50;99.90
30174;DHT22;16985;50.814;8.530;2023-04-15T00:18:35;4.50;99.90
30174;DHT22;16985;50.814;8.530;2023-04-15T00:21:02;4.40;99.90
30174;DHT22;16985;50.814;8.530;2023-04-15T00:23:29;4.40;99.90
30174;DHT22;16985;50.814;8.530;2023-04-15T00:25:55;4.40;99.90
30174;DHT22;16985;50.814;8.530;2023-04-15T00:28:21;4.40;99.90
30174;DHT22;16985;50.814;8.530;2023-04-15T00:30:47;4.30;99.90
30174;DHT22;16985;50.814;8.530;2023-04-15T00:33:13;4.40;99.90
30174;DHT22;16985;50.814;8.530;2023-04-15T00:35:41;4.30;99.90
30174;DHT22;16985;50.814;8.530;2023-04-15T00:38:07;4.30;99.90
30174;DHT22;16985;50.814;8.530;2023-04-15T00:40:33;4.20;99.90
30174;DHT22;16985;50.814;8.530;2023-04-15T00:42:59;6.00;99.90
30174;DHT22;16985;50.814;8.530;2023-04-15T00:45:26;4.20;99.90
30174;DHT22;16985;50.814;8.530;2023-04-15T00:47:53;6.20;99.90
30174;DHT22;16985;50.814;8.530;2023-04-15T00:50:20;4.20;99.90
30174;DHT22;16985;50.814;8.530;2023-04-15T00:52:47;4.30;99.90
30174;DHT22;16985;50.814;8.530;2023-04-15T00:55:14;4.10;99.90
30174;DHT22;16985;50.814;8.530;2023-04-15T00:57:40;4.10;99.90
30174;DHT22;16985;50.814;8.530;2023-04-15T01:00:06;4.70;99.90
30174;DHT22;16985;50.814;8.530;2023-04-15T01:02:34;4.10;99.90
30174;DHT22;16985;50.814;8.530;2023-04-15T01:05:01;5.10;99.90
30174;DHT22;16985;50.814;8.530;2023-04-15T01:07:28;4.10;99.90
30174;DHT22;16985;50.814;8.530;2023-04-15T01:09:55;4.00;99.90
30174;DHT22;16985;50.814;8.530;2023-04-15T01:12:21;4.00;99.90
30174;DHT22;16985;50.814;8.530;2023-04-15T01:14:48;4.00;99.90
30174;DHT22;16985;50.814;8.530;2023-04-15T01:17:14;3.90;99.90
30174;DHT22;16985;50.814;8.530;2023-04-15T01:19:40;3.90;99.90
30174;DHT22;16985;50.814;8.530;2023-04-15T01:22:06;3.90;99.90
30174;DHT22;16985;50.814;8.530;2023-04-15T01:24:33;3.90;99.90
30174;DHT22;16985;50.814;8.530;2023-04-15T01:27:00;3.90;99.90
30174;DHT22;16985;50.814;8.530;2023-04-15T01:29:26;3.90;99.90
30174;DHT22;16985;50.814;8.530;2023-04-15T01:31:53;3.90;99.90
30174;DHT22;16985;50.814;8.530;2023-04-15T01:34:20;3.80;99.90
30174;DHT22;16985;50.814;8.530;2023-04-15T01:36:47;3.80;99.90
30174;DHT22;16985;50.814;8.530;2023-04-15T01:39:13;3.80;99.90
30174;DHT22;16985;50.814;8.530;2023-04-15T01:41:39;3.80;99.90
30174;DHT22;16985;50.814;8.530;2023-04-15T01:44:07;3.80;99.90
30174;DHT22;16985;50.814;8.530;2023-04-15T01:46:33;3.80;99.90
30174;DHT22;16985;50.814;8.530;2023-04-15T01:49:00;3.70;99.90
30174;DHT22;16985;50.814;8.530;2023-04-15T01:51:26;3.70;99.90
30174;DHT22;16985;50.814;8.530;2023-04-15T01:53:52;3.60;99.90
30174;DHT22;16985;50.814;8.530;2023-04-15T01:56:22;3.50;99.90
30174;DHT22;16985;50.814;8.530;2023-04-15T01:58:51;3.60;99.90
30174;DHT22;16985;50.814;8.530;2023-04-15T02:01:17;3.60;99.90
30174;DHT22;16985;50.814;8.530;2023-04-15T02:03:46;3.50;99.90
30174;DHT22;16985;50.814;8.530;2023-04-15T02:06:14;3.60;99.90
30174;DHT22;16985;50.814;8.530;2023-04-15T02:08:40;3.60;99.90
30174;DHT22;16985;50.814;8.530;2023-04-15T02:11:06;3.60;99.90
30174;DHT22;16985;50.814;8.530;2023-04-15T02:13:32;3.60;99.90
30174;DHT22;16985;50.814;8.530;2023-04-15T02:15:58;3.50;99.90
30174;DHT22;16985;50.814;8.530;2023-04-15T02:18:24;3.50;99.90
30174;DHT22;16985;50.814;8.530;2023-04-15T02:20:51;3.50;99.90
30174;DHT22;16985;50.814;8.530;2023-04-15T02:23:17;5.10;99.90
30174;DHT22;16985;50.814;8.530;2023-04-15T02:25:43;3.60;99.90
30174;DHT22;16985;50.814;8.530;2023-04-15T02:28:08;3.60;99.90
30174;DHT22;16985;50.814;8.530;2023-04-15T02:30:35;3.50;99.90
30174;DHT22;16985;50.814;8.530;2023-04-15T02:33:02;3.50;99.90
30174;DHT22;16985;50.814;8.530;2023-04-15T02:35:28;3.60;99.90
30174;DHT22;16985;50.814;8.530;2023-04-15T02:37:54;3.50;99.90
30174;DHT22;16985;50.814;8.530;2023-04-15T02:40:20;3.40;99.90
30174;DHT22;16985;50.814;8.530;2023-04-15T02:45:14;3.40;99.90
30174;DHT22;16985;50.814;8.530;2023-04-15T02:50:11;3.40;99.90
30174;DHT22;16985;50.814;8.530;2023-04-15T02:52:39;3.30;99.90
30174;DHT22;16985;50.814;8.530;2023-04-15T02:55:06;3.30;99.90
30174;DHT22;16985;50.814;8.530;2023-04-15T02:57:33;3.30;99.90
30174;DHT22;16985;50.814;8.530;2023-04-15T03:00:05;3.30;99.90
30174;DHT22;16985;50.814;8.530;2023-04-15T03:02:35;3.20;99.90
30174;DHT22;16985;50.814;8.530;2023-04-15T03:05:02;3.20;99.90
30174;DHT22;16985;50.814;8.530;2023-04-15T03:07:29;3.20;99.90
30174;DHT22;16985;50.814;8.530;2023-04-15T03:09:54;2.80;99.90
30174;DHT22;16985;50.814;8.530;2023-04-15T03:12:20;3.10;99.90
30174;DHT22;16985;50.814;8.530;2023-04-15T03:14:46;3.10;99.90
30174;DHT22;16985;50.814;8.530;2023-04-15T03:17:12;3.10;99.90
30174;DHT22;16985;50.814;8.530;2023-04-15T03:19:38;3.10;99.90
30174;DHT22;16985;50.814;8.530;2023-04-15T03:22:03;3.10;99.90
30174;DHT22;16985;50.814;8.530;2023-04-15T03:24:29;5.50;99.90
30174;DHT22;16985;50.814;8.530;2023-04-15T03:26:56;3.10;99.90
30174;DHT22;16985;50.814;8.530;2023-04-15T03:29:23;3.10;99.90
30174;DHT22;16985;50.814;8.530;2023-04-15T03:31:50;3.10;99.90
30174;DHT22;16985;50.814;8.530;2023-04-15T03:34:16;3.00;99.90
30174;DHT22;16985;50.814;8.530;2023-04-15T03:36:42;3.00;99.90
30174;DHT22;16985;50.814;8.530;2023-04-15T03:43:49;3.40;99.90
30174;DHT22;16985;50.814;8.530;2023-04-15T03:46:17;3.20;99.90
30174;DHT22;16985;50.814;8.530;2023-04-15T03:48:58;3.10;99.90
30174;DHT22;16985;50.814;8.530;2023-04-15T03:51:24;3.00;99.90
30174;DHT22;16985;50.814;8.530;2023-04-15T03:53:50;3.00;99.90
30174;DHT22;16985;50.814;8.530;2023-04-15T03:56:16;3.00;99.90
30174;DHT22;16985;50.814;8.530;2023-04-15T03:58:57;3.00;99.90
30174;DHT22;16985;50.814;8.530;2023-04-15T04:01:23;3.00;99.90
30174;DHT22;16985;50.814;8.530;2023-04-15T04:03:48;3.30;99.90
30174;DHT22;16985;50.814;8.530;2023-04-15T04:06:14;2.90;99.90
30174;DHT22;16985;50.814;8.530;2023-04-15T04:08:41;2.90;99.90
30174;DHT22;16985;50.814;8.530;2023-04-15T04:11:07;2.90;99.90
30174;DHT22;16985;50.814;8.530;2023-04-15T04:13:32;2.90;99.90
30174;DHT22;16985;50.814;8.530;2023-04-15T04:15:58;2.80;99.90
30174;DHT22;16985;50.814;8.530;2023-04-15T04:18:24;2.90;99.90
30174;DHT22;16985;50.814;8.530;2023-04-15T04:20:50;2.90;99.90
30174;DHT22;16985;50.814;8.530;2023-04-15T04:23:16;2.90;99.90
30174;DHT22;16985;50.814;8.530;2023-04-15T04:25:41;2.90;99.90
30174;DHT22;16985;50.814;8.530;2023-04-15T04:28:08;2.90;99.90
30174;DHT22;16985;50.814;8.530;2023-04-15T04:30:34;2.90;99.90
30174;DHT22;16985;50.814;8.530;2023-04-15T04:33:00;2.80;99.90
30174;DHT22;16985;50.814;8.530;2023-04-15T04:35:26;2.90;99.90
30174;DHT22;16985;50.814;8.530;2023-04-15T04:37:52;2.80;99.90
30174;DHT22;16985;50.814;8.530;2023-04-15T04:40:21;2.80;99.90
30174;DHT22;16985;50.814;8.530;2023-04-15T04:42:46;2.20;99.90
30174;DHT22;16985;50.814;8.530;2023-04-15T04:45:12;2.90;99.90
30174;DHT22;16985;50.814;8.530;2023-04-15T04:47:38;2.90;99.90
30174;DHT22;16985;50.814;8.530;2023-04-15T04:50:04;2.90;99.90
30174;DHT22;16985;50.814;8.530;2023-04-15T04:52:40;2.80;99.90
30174;DHT22;16985;50.814;8.530;2023-04-15T04:55:06;2.80;99.90
30174;DHT22;16985;50.814;8.530;2023-04-15T04:57:48;2.90;99.90
30174;DHT22;16985;50.814;8.530;2023-04-15T05:00:14;2.80;99.90
30174;DHT22;16985;50.814;8.530;2023-04-15T05:02:40;2.80;99.90
30174;DHT22;16985;50.814;8.530;2023-04-15T05:05:08;2.90;99.90
30174;DHT22;16985;50.814;8.530;2023-04-15T05:07:35;2.90;99.90
30174;DHT22;16985;50.814;8.530;2023-04-15T05:10:01;2.90;99.90
30174;DHT22;16985;50.814;8.530;2023-04-15T05:12:27;3.00;99.90
30174;DHT22;16985;50.814;8.530;2023-04-15T05:14:52;3.00;99.90
30174;DHT22;16985;50.814;8.530;2023-04-15T05:19:45;2.90;99.90
30174;DHT22;16985;50.814;8.530;2023-04-15T05:22:10;2.90;99.90
30174;DHT22;16985;50.814;8.530;2023-04-15T05:24:36;3.10;99.90
30174;DHT22;16985;50.814;8.530;2023-04-15T05:27:02;3.00;99.90
30174;DHT22;16985;50.814;8.530;2023-04-15T05:29:28;3.00;99.90
30174;DHT22;16985;50.814;8.530;2023-04-15T05:31:54;2.90;99.90
30174;DHT22;16985;50.814;8.530;2023-04-15T05:34:20;3.00;99.90
30174;DHT22;16985;50.814;8.530;2023-04-15T05:36:46;2.90;99.90
30174;DHT22;16985;50.814;8.530;2023-04-15T05:39:11;3.00;99.90
30174;DHT22;16985;50.814;8.530;2023-04-15T05:41:37;3.60;99.90
30174;DHT22;16985;50.814;8.530;2023-04-15T05:44:03;3.00;99.90
30174;DHT22;16985;50.814;8.530;2023-04-15T05:46:29;3.10;99.90
30174;DHT22;16985;50.814;8.530;2023-04-15T05:48:55;3.10;99.90
30174;DHT22;16985;50.814;8.530;2023-04-15T05:51:21;3.10;99.90
30174;DHT22;16985;50.814;8.530;2023-04-15T05:53:46;3.20;99.90
30174;DHT22;16985;50.814;8.530;2023-04-15T05:56:12;3.20;99.90
30174;DHT22;16985;50.814;8.530;2023-04-15T05:58:38;3.20;99.90
30174;DHT22;16985;50.814;8.530;2023-04-15T06:01:04;3.30;99.90
30174;DHT22;16985;50.814;8.530;2023-04-15T06:03:30;3.30;99.90
30174;DHT22;16985;50.814;8.530;2023-04-15T06:05:56;3.30;99.90
30174;DHT22;16985;50.814;8.530;2023-04-15T06:08:21;3.40;99.90
30174;DHT22;16985;50.814;8.530;2023-04-15T06:10:47;3.40;99.90
30174;DHT22;16985;50.814;8.530;2023-04-15T06:13:13;3.40;99.90
30174;DHT22;16985;50.814;8.530;2023-04-15T06:15:39;5.10;99.90
30174;DHT22;16985;50.814;8.530;2023-04-15T06:18:04;3.40;99.90
30174;DHT22;16985;50.814;8.530;2023-04-15T06:20:30;3.50;99.90
30174;DHT22;16985;50.814;8.530;2023-04-15T06:22:56;3.60;99.90
30174;DHT22;16985;50.814;8.530;2023-04-15T06:25:22;3.60;99.90
30174;DHT22;16985;50.814;8.530;2023-04-15T06:27:48;3.70;99.90
30174;DHT22;16985;50.814;8.530;2023-04-15T06:30:14;3.70;99.90
30174;DHT22;16985;50.814;8.530;2023-04-15T06:32:40;3.80;99.90
30174;DHT22;16985;50.814;8.530;2023-04-15T06:35:06;3.80;99.90
30174;DHT22;16985;50.814;8.530;2023-04-15T06:37:31;3.90;99.90
30174;DHT22;16985;50.814;8.530;2023-04-15T06:40:07;3.90;99.90
30174;DHT22;16985;50.814;8.530;2023-04-15T06:42:34;4.00;99.90
30174;DHT22;16985;50.814;8.530;2023-04-15T06:45:01;4.00;99.90
30174;DHT22;16985;50.814;8.530;2023-04-15T06:47:27;4.10;99.90
30174;DHT22;16985;50.814;8.530;2023-04-15T06:49:53;4.10;99.90
30174;DHT22;16985;50.814;8.530;2023-04-15T06:52:19;4.20;99.90
30174;DHT22;16985;50.814;8.530;2023-04-15T06:54:45;4.20;99.90
30174;DHT22;16985;50.814;8.530;2023-04-15T06:57:10;4.30;99.90
30174;DHT22;16985;50.814;8.530;2023-04-15T07:02:02;4.70;99.90
30174;DHT22;16985;50.814;8.530;2023-04-15T07:09:22;4.90;99.90
30174;DHT22;16985;50.814;8.530;2023-04-15T07:11:49;4.80;99.90
30174;DHT22;16985;50.814;8.530;2023-04-15T07:14:15;4.70;99.90
30174;DHT22;16985;50.814;8.530;2023-04-15T07:16:41;4.80;99.90
30174;DHT22;16985;50.814;8.530;2023-04-15T07:19:07;4.80;99.90
30174;DHT22;16985;50.814;8.530;2023-04-15T07:21:33;4.90;99.90
30174;DHT22;16985;50.814;8.530;2023-04-15T07:23:59;4.90;99.90
30174;DHT22;16985;50.814;8.530;2023-04-15T07:26:25;5.00;99.90
30174;DHT22;16985;50.814;8.530;2023-04-15T07:28:50;5.00;99.90
30174;DHT22;16985;50.814;8.530;2023-04-15T07:31:16;5.10;99.90
30174;DHT22;16985;50.814;8.530;2023-04-15T07:33:42;5.20;99.90
30174;DHT22;16985;50.814;8.530;2023-04-15T07:36:08;5.30;99.90
30174;DHT22;16985;50.814;8.530;2023-04-15T07:38:34;5.60;99.90
30174;DHT22;16985;50.814;8.530;2023-04-15T07:41:00;5.50;99.90
30174;DHT22;16985;50.814;8.530;2023-04-15T07:43:26;5.60;99.90
30174;DHT22;16985;50.814;8.530;2023-04-15T07:45:52;5.70;99.90
30174;DHT22;16985;50.814;8.530;2023-04-15T07:48:18;5.80;99.90
30174;DHT22;16985;50.814;8.530;2023-04-15T07:50:44;6.00;99.90
30174;DHT22;16985;50.814;8.530;2023-04-15T07:53:10;6.10;99.90
30174;DHT22;16985;50.814;8.530;2023-04-15T07:55:35;6.20;99.90
30174;DHT22;16985;50.814;8.530;2023-04-15T07:58:01;6.30;99.90
30174;DHT22;16985;50.814;8.530;2023-04-15T08:00:27;6.40;99.90
30174;DHT22;16985;50.814;8.530;2023-04-15T08:02:53;6.50;99.90
30174;DHT22;16985;50.814;8.530;2023-04-15T08:05:19;6.60;99.90
30174;DHT22;16985;50.814;8.530;2023-04-15T08:07:44;6.80;99.90
30174;DHT22;16985;50.814;8.530;2023-04-15T08:10:11;6.80;99.90
30174;DHT22;16985;50.814;8.530;2023-04-15T08:12:37;6.90;99.90
30174;DHT22;16985;50.814;8.530;2023-04-15T08:15:03;7.10;99.90
30174;DHT22;16985;50.814;8.530;2023-04-15T08:17:29;7.10;99.90
30174;DHT22;16985;50.814;8.530;2023-04-15T08:19:55;7.30;99.90
30174;DHT22;16985;50.814;8.530;2023-04-15T08:22:21;7.30;99.90
30174;DHT22;16985;50.814;8.530;2023-04-15T08:24:47;7.40;99.90
30174;DHT22;16985;50.814;8.530;2023-04-15T08:27:13;7.50;99.90
30174;DHT22;16985;50.814;8.530;2023-04-15T08:29:39;7.50;99.90
30174;DHT22;16985;50.814;8.530;2023-04-15T08:32:05;7.60;99.90
30174;DHT22;16985;50.814;8.530;2023-04-15T08:34:30;7.70;99.90
30174;DHT22;16985;50.814;8.530;2023-04-15T08:36:56;7.70;99.90
30174;DHT22;16985;50.814;8.530;2023-04-15T08:39:22;7.80;99.90
30174;DHT22;16985;50.814;8.530;2023-04-15T08:41:58;7.90;99.90
30174;DHT22;16985;50.814;8.530;2023-04-15T08:44:29;8.00;99.90
30174;DHT22;16985;50.814;8.530;2023-04-15T08:47:00;8.10;99.90
30174;DHT22;16985;50.814;8.530;2023-04-15T08:49:31;8.10;99.90
30174;DHT22;16985;50.814;8.530;2023-04-15T08:52:05;8.20;99.90
30174;DHT22;16985;50.814;8.530;2023-04-15T08:54:32;8.20;99.90
30174;DHT22;16985;50.814;8.530;2023-04-15T08:56:58;8.30;99.90
30174;DHT22;16985;50.814;8.530;2023-04-15T08:59:24;8.30;99.90
30174;DHT22;16985;50.814;8.530;2023-04-15T09:01:50;8.40;99.90
30174;DHT22;16985;50.814;8.530;2023-04-15T09:04:17;8.40;99.90
30174;DHT22;16985;50.814;8.530;2023-04-15T09:06:57;8.50;99.90
30174;DHT22;16985;50.814;8.530;2023-04-15T09:09:23;8.50;99.90
30174;DHT22;16985;50.814;8.530;2023-04-15T09:11:49;7.40;99.90
30174;DHT22;16985;50.814;8.530;2023-04-15T09:14:15;8.60;99.90
30174;DHT22;16985;50.814;8.530;2023-04-15T09:17:01;8.70;99.90
30174;DHT22;16985;50.814;8.530;2023-04-15T09:19:28;8.70;99.90
30174;DHT22;16985;50.814;8.530;2023-04-15T09:21:57;8.80;99.90
30174;DHT22;16985;50.814;8.530;2023-04-15T09:24:23;8.80;99.90
30174;DHT22;16985;50.814;8.530;2023-04-15T09:26:53;8.80;99.90
30174;DHT22;16985;50.814;8.530;2023-04-15T09:29:23;8.80;99.90
30174;DHT22;16985;50.814;8.530;2023-04-15T09:31:51;8.90;99.90
30174;DHT22;16985;50.814;8.530;2023-04-15T09:34:17;8.90;99.90
30174;DHT22;16985;50.814;8.530;2023-04-15T09:39:13;9.00;99.90
30174;DHT22;16985;50.814;8.530;2023-04-15T09:41:39;9.00;99.90
30174;DHT22;16985;50.814;8.530;2023-04-15T09:44:05;9.00;99.90
30174;DHT22;16985;50.814;8.530;2023-04-15T09:46:42;9.00;99.90
30174;DHT22;16985;50.814;8.530;2023-04-15T09:49:09;9.00;99.90
30174;DHT22;16985;50.814;8.530;2023-04-15T09:51:35;9.00;99.90
30174;DHT22;16985;50.814;8.530;2023-04-15T09:54:01;9.00;99.90
30174;DHT22;16985;50.814;8.530;2023-04-15T09:56:35;9.00;99.90
30174;DHT22;16985;50.814;8.530;2023-04-15T09:59:04;9.00;99.90
30174;DHT22;16985;50.814;8.530;2023-04-15T10:01:30;9.00;99.90
30174;DHT22;16985;50.814;8.530;2023-04-15T10:03:57;9.00;99.90
30174;DHT22;16985;50.814;8.530;2023-04-15T10:06:25;9.00;99.90
30174;DHT22;16985;50.814;8.530;2023-04-15T10:08:51;9.00;99.90
30174;DHT22;16985;50.814;8.530;2023-04-15T10:11:27;9.10;99.90
30174;DHT22;16985;50.814;8.530;2023-04-15T10:13:54;9.10;99.90
30174;DHT22;16985;50.814;8.530;2023-04-15T10:16:29;9.10;99.90
30174;DHT22;16985;50.814;8.530;2023-04-15T10:19:01;9.10;99.90
30174;DHT22;16985;50.814;8.530;2023-04-15T10:21:29;9.00;99.90
30174;DHT22;16985;50.814;8.530;2023-04-15T10:23:56;9.00;99.90
30174;DHT22;16985;50.814;8.530;2023-04-15T10:26:23;9.00;99.90
30174;DHT22;16985;50.814;8.530;2023-04-15T10:28:49;9.00;99.90
30174;DHT22;16985;50.814;8.530;2023-04-15T10:31:17;9.00;99.90
30174;DHT22;16985;50.814;8.530;2023-04-15T10:33:43;8.90;99.90
30174;DHT22;16985;50.814;8.530;2023-04-15T10:36:10;8.90;99.90
30174;DHT22;16985;50.814;8.530;2023-04-15T10:38:41;8.90;99.90
30174;DHT22;16985;50.814;8.530;2023-04-15T10:44:02;8.90;99.90
30174;DHT22;16985;50.814;8.530;2023-04-15T10:46:45;8.80;99.90
30174;DHT22;16985;50.814;8.530;2023-04-15T10:49:16;8.80;99.90
30174;DHT22;16985;50.814;8.530;2023-04-15T10:51:50;8.80;99.90
30174;DHT22;16985;50.814;8.530;2023-04-15T10:59:36;8.90;99.90
30174;DHT22;16985;50.814;8.530;2023-04-15T11:02:06;8.90;99.90
30174;DHT22;16985;50.814;8.530;2023-04-15T11:07:52;9.50;99.90
30174;DHT22;16985;50.814;8.530;2023-04-15T11:12:46;8.90;99.90
30174;DHT22;16985;50.814;8.530;2023-04-15T11:15:39;8.90;99.90
30174;DHT22;16985;50.814;8.530;2023-04-15T11:18:19;8.90;99.90
30174;DHT22;16985;50.814;8.530;2023-04-15T11:20:51;8.90;99.90
30174;DHT22;16985;50.814;8.530;2023-04-15T11:25:58;8.90;99.90
30174;DHT22;16985;50.814;8.530;2023-04-15T11:28:34;8.90;99.90
30174;DHT22;16985;50.814;8.530;2023-04-15T11:31:11;8.90;99.90
30174;DHT22;16985;50.814;8.530;2023-04-15T11:33:45;8.90;99.90
30174;DHT22;16985;50.814;8.530;2023-04-15T11:36:13;9.00;99.90
30174;DHT22;16985;50.814;8.530;2023-04-15T11:38:42;9.00;99.90
30174;DHT22;16985;50.814;8.530;2023-04-15T11:41:10;9.00;99.90
30174;DHT22;16985;50.814;8.530;2023-04-15T11:43:36;9.00;99.90
30174;DHT22;16985;50.814;8.530;2023-04-15T11:46:02;9.00;99.90
30174;DHT22;16985;50.814;8.530;2023-04-15T11:48:30;9.00;99.90
30174;DHT22;16985;50.814;8.530;2023-04-15T11:50:59;9.00;99.90
30174;DHT22;16985;50.814;8.530;2023-04-15T11:53:46;8.90;99.90
30174;DHT22;16985;50.814;8.530;2023-04-15T11:56:20;9.00;99.90
30174;DHT22;16985;50.814;8.530;2023-04-15T11:58:49;8.90;99.90
30174;DHT22;16985;50.814;8.530;2023-04-15T12:01:17;9.00;99.90
30174;DHT22;16985;50.814;8.530;2023-04-15T12:03:45;9.00;99.90
30174;DHT22;16985;50.814;8.530;2023-04-15T12:06:17;8.90;99.90
30174;DHT22;16985;50.814;8.530;2023-04-15T12:14:09;8.90;99.90
30174;DHT22;16985;50.814;8.530;2023-04-15T12:16:44;9.00;99.90
30174;DHT22;16985;50.814;8.530;2023-04-15T12:19:16;9.00;99.90
30174;DHT22;16985;50.814;8.530;2023-04-15T12:21:45;9.00;99.90
30174;DHT22;16985;50.814;8.530;2023-04-15T12:24:12;9.00;99.90
30174;DHT22;16985;50.814;8.530;2023-04-15T12:29:24;8.90;99.90
30174;DHT22;16985;50.814;8.530;2023-04-15T12:31:57;8.90;99.90
30174;DHT22;16985;50.814;8.530;2023-04-15T12:34:29;8.90;99.90
30174;DHT22;16985;50.814;8.530;2023-04-15T12:36:57;8.90;99.90
30174;DHT22;16985;50.814;8.530;2023-04-15T12:39:25;8.80;99.90
30174;DHT22;16985;50.814;8.530;2023-04-15T12:41:53;8.80;99.90
30174;DHT22;16985;50.814;8.530;2023-04-15T12:44:23;8.80;99.90
30174;DHT22;16985;50.814;8.530;2023-04-15T12:46:49;8.80;99.90
30174;DHT22;16985;50.814;8.530;2023-04-15T12:49:15;8.90;99.90
30174;DHT22;16985;50.814;8.530;2023-04-15T12:51:44;8.90;99.90
30174;DHT22;16985;50.814;8.530;2023-04-15T12:54:10;8.80;99.90
30174;DHT22;16985;50.814;8.530;2023-04-15T12:56:36;8.80;99.90
30174;DHT22;16985;50.814;8.530;2023-04-15T12:59:01;8.80;99.90
30174;DHT22;16985;50.814;8.530;2023-04-15T13:01:27;9.00;99.90
30174;DHT22;16985;50.814;8.530;2023-04-15T13:03:53;8.90;99.90
30174;DHT22;16985;50.814;8.530;2023-04-15T13:06:22;8.90;99.90
30174;DHT22;16985;50.814;8.530;2023-04-15T13:08:49;8.90;99.90
30174;DHT22;16985;50.814;8.530;2023-04-15T13:11:15;8.90;99.90
30174;DHT22;16985;50.814;8.530;2023-04-15T13:13:42;10.70;99.90
30174;DHT22;16985;50.814;8.530;2023-04-15T13:16:07;8.90;99.90
30174;DHT22;16985;50.814;8.530;2023-04-15T13:18:34;9.00;99.90
30174;DHT22;16985;50.814;8.530;2023-04-15T13:21:00;8.90;99.90
30174;DHT22;16985;50.814;8.530;2023-04-15T13:23:26;8.90;99.90
30174;DHT22;16985;50.814;8.530;2023-04-15T13:25:52;8.90;99.90
30174;DHT22;16985;50.814;8.530;2023-04-15T13:28:18;8.90;99.90
30174;DHT22;16985;50.814;8.530;2023-04-15T13:30:43;8.90;99.90
30174;DHT22;16985;50.814;8.530;2023-04-15T13:33:10;8.90;99.90
30174;DHT22;16985;50.814;8.530;2023-04-15T13:35:52;8.90;99.90
30174;DHT22;16985;50.814;8.530;2023-04-15T13:38:17;8.90;99.90
30174;DHT22;16985;50.814;8.530;2023-04-15T13:40:43;8.90;99.90
30174;DHT22;16985;50.814;8.530;2023-04-15T13:43:09;8.20;99.90
30174;DHT22;16985;50.814;8.530;2023-04-15T13:45:35;8.90;99.90
30174;DHT22;16985;50.814;8.530;2023-04-15T13:48:01;8.90;99.90
30174;DHT22;16985;50.814;8.530;2023-04-15T13:50:27;8.90;99.90
30174;DHT22;16985;50.814;8.530;2023-04-15T13:52:53;8.90;99.90
30174;DHT22;16985;50.814;8.530;2023-04-15T13:55:19;8.90;99.90
30174;DHT22;16985;50.814;8.530;2023-04-15T13:57:45;8.90;99.90
30174;DHT22;16985;50.814;8.530;2023-04-15T14:00:12;8.80;99.90
30174;DHT22;16985;50.814;8.530;2023-04-15T14:02:39;8.80;99.90
30174;DHT22;16985;50.814;8.530;2023-04-15T14:05:06;8.80;99.90
30174;DHT22;16985;50.814;8.530;2023-04-15T14:07:32;8.80;99.90
30174;DHT22;16985;50.814;8.530;2023-04-15T14:09:59;8.80;99.90
30174;DHT22;16985;50.814;8.530;2023-04-15T14:12:25;8.90;99.90
30174;DHT22;16985;50.814;8.530;2023-04-15T14:14:50;8.80;99.90
30174;DHT22;16985;50.814;8.530;2023-04-15T14:17:16;8.80;99.90
30174;DHT22;16985;50.814;8.530;2023-04-15T14:19:42;8.80;99.90
30174;DHT22;16985;50.814;8.530;2023-04-15T14:22:08;8.80;99.90
30174;DHT22;16985;50.814;8.530;2023-04-15T14:24:34;8.80;99.90
30174;DHT22;16985;50.814;8.530;2023-04-15T14:26:59;8.80;99.90
30174;DHT22;16985;50.814;8.530;2023-04-15T14:29:27;8.80;99.90
30174;DHT22;16985;50.814;8.530;2023-04-15T14:31:52;8.80;99.90
30174;DHT22;16985;50.814;8.530;2023-04-15T14:34:33;8.90;99.90
30174;DHT22;16985;50.814;8.530;2023-04-15T14:36:59;8.80;99.90
30174;DHT22;16985;50.814;8.530;2023-04-15T14:39:25;8.90;99.90
30174;DHT22;16985;50.814;8.530;2023-04-15T14:41:51;8.80;99.90
30174;DHT22;16985;50.814;8.530;2023-04-15T14:44:17;8.80;99.90
30174;DHT22;16985;50.814;8.530;2023-04-15T14:46:43;8.80;99.90
30174;DHT22;16985;50.814;8.530;2023-04-15T14:49:08;8.80;99.90
30174;DHT22;16985;50.814;8.530;2023-04-15T14:51:34;8.80;99.90
30174;DHT22;16985;50.814;8.530;2023-04-15T14:54:00;8.80;99.90
30174;DHT22;16985;50.814;8.530;2023-04-15T14:56:26;8.80;99.90
30174;DHT22;16985;50.814;8.530;2023-04-15T14:58:52;8.70;99.90
30174;DHT22;16985;50.814;8.530;2023-04-15T15:01:19;8.70;99.90
30174;DHT22;16985;50.814;8.530;2023-04-15T15:03:45;8.70;99.90
30174;DHT22;16985;50.814;8.530;2023-04-15T15:06:11;8.70;99.90
30174;DHT22;16985;50.814;8.530;2023-04-15T15:08:36;8.70;99.90
30174;DHT22;16985;50.814;8.530;2023-04-15T15:11:02;8.70;99.90
30174;DHT22;16985;50.814;8.530;2023-04-15T15:13:28;8.70;99.90
30174;DHT22;16985;50.814;8.530;2023-04-15T15:15:54;8.70;99.90
30174;DHT22;16985;50.814;8.530;2023-04-15T15:18:19;8.70;99.90
30174;DHT22;16985;50.814;8.530;2023-04-15T15:20:46;8.70;99.90
30174;DHT22;16985;50.814;8.530;2023-04-15T15:23:12;8.70;99.90
30174;DHT22;16985;50.814;8.530;2023-04-15T15:25:37;8.70;99.90
30174;DHT22;16985;50.814;8.530;2023-04-15T15:28:03;8.80;99.90
30174;DHT22;16985;50.814;8.530;2023-04-15T15:30:30;8.80;99.90
30174;DHT22;16985;50.814;8.530;2023-04-15T15:32:55;8.80;99.90
30174;DHT22;16985;50.814;8.530;2023-04-15T15:35:21;8.80;99.90
30174;DHT22;16985;50.814;8.530;2023-04-15T15:37:48;8.70;99.90
30174;DHT22;16985;50.814;8.530;2023-04-15T15:40:13;8.70;99.90
30174;DHT22;16985;50.814;8.530;2023-04-15T15:42:39;8.70;99.90
30174;DHT22;16985;50.814;8.530;2023-04-15T15:45:06;8.70;99.90
30174;DHT22;16985;50.814;8.530;2023-04-15T15:47:32;8.70;99.90
30174;DHT22;16985;50.814;8.530;2023-04-15T15:49:59;8.70;99.90
30174;DHT22;16985;50.814;8.530;2023-04-15T15:52:26;8.70;99.90
30174;DHT22;16985;50.814;8.530;2023-04-15T15:54:52;8.70;99.90
30174;DHT22;16985;50.814;8.530;2023-04-15T15:57:17;8.70;99.90
30174;DHT22;16985;50.814;8.530;2023-04-15T15:59:43;8.70;99.90
30174;DHT22;16985;50.814;8.530;2023-04-15T16:02:10;8.70;99.90
30174;DHT22;16985;50.814;8.530;2023-04-15T16:04:37;8.70;99.90
30174;DHT22;16985;50.814;8.530;2023-04-15T16:07:03;8.60;99.90
30174;DHT22;16985;50.814;8.530;2023-04-15T16:09:30;8.60;99.90
30174;DHT22;16985;50.814;8.530;2023-04-15T16:11:56;8.60;99.90
30174;DHT22;16985;50.814;8.530;2023-04-15T16:14:23;8.60;99.90
30174;DHT22;16985;50.814;8.530;2023-04-15T16:16:50;8.60;99.90
30174;DHT22;16985;50.814;8.530;2023-04-15T16:19:19;8.60;99.90
30174;DHT22;16985;50.814;8.530;2023-04-15T16:21:45;8.60;99.90
30174;DHT22;16985;50.814;8.530;2023-04-15T16:24:11;8.50;99.90
30174;DHT22;16985;50.814;8.530;2023-04-15T16:26:38;8.50;99.90
30174;DHT22;16985;50.814;8.530;2023-04-15T16:29:05;8.50;99.90
30174;DHT22;16985;50.814;8.530;2023-04-15T16:31:31;8.50;99.90